Time;durP1;ratioP1;P1;durP2;ratioP2;P2;SDS_P1;SDS_P2;PMS_P1;PMS_P2;Temp;Humidity;BMP_temperature;BMP_pressure;BME280_temperature;BME280_humidity;BME280_pressure;Samples;Min_cycle;Max_cycle;Signal;HPM_P1;HPM_P2
2023/07/07 00:02:09;;;;;;;;;;;;;;;;;;7368413;19;19930;-67
2023/07/07 00:04:35;;;;;;;;;;;;;;;;;;7368219;19;20022;-67
2023/07/07 00:07:00;;;;;;;;;;;;;;;;;;7365100;19;19918;-67
2023/07/07 00:09:25;;;;;;;;;;;;;;;;;;7386132;19;19925;-67
2023/07/07 00:11:51;;;;;;;;;;;;;;;;;;7365653;19;19932;-67
2023/07/07 00:14:16;;;;;;;;;;;;;;;;;;7363577;19;19915;-67
2023/07/07 00:16:42;;;;;;;;;;;;;;;;;;7363476;19;19915;-67
2023/07/07 00:19:10;;;;;;;;;;;;;;;;;;7364292;19;19923;-68
2023/07/07 00:21:36;;;;;;;;;;;;;;;;;;7386973;19;19965;-68
2023/07/07 00:24:02;;;;;;;;;;;;;;;;;;7366480;19;19951;-66
2023/07/07 00:26:27;;;;;;;;;;;;;;;;;;7365978;19;19936;-67
2023/07/07 00:28:52;;;;;;;;;;;;;;;;;;7361546;19;20011;-67
2023/07/07 00:31:20;;;;;;;;;;;;;;;;;;7364300;19;19944;-67
2023/07/07 00:33:45;;;;;;;;;;;;;;;;;;7365026;19;19918;-67
2023/07/07 00:36:11;;;;;;;;;;;;;;;;;;7386671;19;19918;-67
2023/07/07 00:38:36;;;;;;;;;;;;;;;;;;7364860;19;19918;-67
2023/07/07 00:41:02;;;;;;;;;;;;;;;;;;7365120;19;19914;-68
2023/07/07 00:43:28;;;;;;;;;;;;;;;;;;7365841;19;20008;-66
2023/07/07 00:45:53;;;;;;;;;;;;;;;;;;7364475;19;19919;-69
2023/07/07 00:48:20;;;;;;;;;;;;;;;;;;7385611;19;19952;-68
2023/07/07 00:50:51;;;;;;;;;;;;;;;;;;7363685;19;20254;-68
2023/07/07 00:53:17;;;;;;;;;;;;;;;;;;7366463;19;19943;-68
2023/07/07 00:55:49;;;;;;;;;;;;;;;;;;7363726;19;19915;-68
2023/07/07 00:58:16;;;;;;;;;;;;;;;;;;7364602;19;19911;-68
2023/07/07 01:00:43;;;;;;;;;;;;;;;;;;7385906;19;19921;-68
2023/07/07 01:03:15;;;;;;;;;;;;;;;;;;7364650;19;19922;-68
2023/07/07 01:05:42;;;;;;;;;;;;;;;;;;7366218;19;20352;-68
2023/07/07 01:08:07;;;;;;;;;;;;;;;;;;7363779;19;19930;-67
2023/07/07 01:10:33;;;;;;;;;;;;;;;;;;7362401;19;19915;-67
2023/07/07 01:12:58;;;;;;;;;;;;;;;;;;7366490;19;19954;-67
2023/07/07 01:15:25;;;;;;;;;;;;;;;;;;7385270;19;20910;-67
2023/07/07 01:17:59;;;;;;;;;;;;;;;;;;7363186;19;20278;-67
2023/07/07 01:20:41;;;;;;;;;;;;;;;;;;7362908;19;20663;-67
2023/07/07 01:23:09;;;;;;;;;;;;;;;;;;7365872;19;19915;-67
2023/07/07 01:25:40;;;;;;;;;;;;;;;;;;7369206;19;19947;-66
2023/07/07 01:28:23;;;;;;;;;;;;;;;;;;7370984;19;20508;-66
2023/07/07 01:30:52;;;;;;;;;;;;;;;;;;7370487;19;19911;-68
2023/07/07 01:33:19;;;;;;;;;;;;;;;;;;7393633;19;19919;-68
2023/07/07 01:35:45;;;;;;;;;;;;;;;;;;7371009;19;19925;-68
2023/07/07 01:38:27;;;;;;;;;;;;;;;;;;7372060;19;19991;-65
2023/07/07 01:40:56;;;;;;;;;;;;;;;;;;7371279;19;19982;-66
2023/07/07 01:43:26;;;;;;;;;;;;;;;;;;7369878;19;19947;-66
2023/07/07 01:45:59;;;;;;;;;;;;;;;;;;7370569;19;20024;-67
2023/07/07 01:48:35;;;;;;;;;;;;;;;;;;7391052;19;20271;-67
2023/07/07 01:51:01;;;;;;;;;;;;;;;;;;7370028;19;19939;-66
2023/07/07 01:53:28;;;;;;;;;;;;;;;;;;7372271;19;20039;-66
2023/07/07 01:55:56;;;;;;;;;;;;;;;;;;7367848;19;19932;-67
2023/07/07 01:58:22;;;;;;;;;;;;;;;;;;7369150;19;19918;-68
2023/07/07 02:00:49;;;;;;;;;;;;;;;;;;7370434;19;20261;-68
2023/07/07 02:03:14;;;;;;;;;;;;;;;;;;7393523;19;20341;-68
2023/07/07 02:05:40;;;;;;;;;;;;;;;;;;7374351;19;19911;-66
2023/07/07 02:08:05;;;;;;;;;;;;;;;;;;7372245;19;20083;-66
2023/07/07 02:10:30;;;;;;;;;;;;;;;;;;7370581;19;19922;-66
2023/07/07 02:12:56;;;;;;;;;;;;;;;;;;7371406;19;19922;-66
2023/07/07 02:15:21;;;;;;;;;;;;;;;;;;7391518;19;19914;-66
2023/07/07 02:17:47;;;;;;;;;;;;;;;;;;7369178;19;19923;-68
2023/07/07 02:20:12;;;;;;;;;;;;;;;;;;7368612;19;20385;-68
2023/07/07 02:22:38;;;;;;;;;;;;;;;;;;7369731;19;19911;-67
2023/07/07 02:25:03;;;;;;;;;;;;;;;;;;7369024;19;19923;-68
2023/07/07 02:27:29;;;;;;;;;;;;;;;;;;7389617;19;20014;-68
2023/07/07 02:29:54;;;;;;;;;;;;;;;;;;7367985;19;19947;-68
2023/07/07 02:32:19;;;;;;;;;;;;;;;;;;7369673;19;19923;-68
2023/07/07 02:34:47;;;;;;;;;;;;;;;;;;7369514;19;19919;-68
2023/07/07 02:37:13;;;;;;;;;;;;;;;;;;7366366;19;19923;-68
2023/07/07 02:39:40;;;;;;;;;;;;;;;;;;7389887;19;19919;-68
2023/07/07 02:42:05;;;;;;;;;;;;;;;;;;7368891;19;19952;-68
2023/07/07 02:44:31;;;;;;;;;;;;;;;;;;7369300;19;19911;-68
2023/07/07 02:46:56;;;;;;;;;;;;;;;;;;7364352;19;20242;-68
2023/07/07 02:49:21;;;;;;;;;;;;;;;;;;7372235;19;20296;-67
2023/07/07 02:51:46;;;;;;;;;;;;;;;;;;7374782;19;20464;-67
2023/07/07 02:54:11;;;;;;;;;;;;;;;;;;7394922;19;19999;-67
2023/07/07 02:56:37;;;;;;;;;;;;;;;;;;7373893;19;19935;-68
2023/07/07 02:59:02;;;;;;;;;;;;;;;;;;7377686;19;19958;-67
2023/07/07 03:01:27;;;;;;;;;;;;;;;;;;7376396;19;19918;-66
2023/07/07 03:03:56;;;;;;;;;;;;;;;;;;7372882;19;19932;-66
2023/07/07 03:06:22;;;;;;;;;;;;;;;;;;7393671;19;19927;-66
2023/07/07 03:08:48;;;;;;;;;;;;;;;;;;7373189;19;19951;-67
2023/07/07 03:11:14;;;;;;;;;;;;;;;;;;7371304;19;19922;-67
2023/07/07 03:13:40;;;;;;;;;;;;;;;;;;7375005;19;19932;-67
2023/07/07 03:16:08;;;;;;;;;;;;;;;;;;7373665;19;19911;-67
2023/07/07 03:18:33;;;;;;;;;;;;;;;;;;7391140;19;19922;-67
2023/07/07 03:20:58;;;;;;;;;;;;;;;;;;7369475;19;19918;-67
2023/07/07 03:23:23;;;;;;;;;;;;;;;;;;7372296;19;19915;-67
2023/07/07 03:25:49;;;;;;;;;;;;;;;;;;7371760;19;19915;-67
2023/07/07 03:28:14;;;;;;;;;;;;;;;;;;7368601;19;20978;-67
2023/07/07 03:30:39;;;;;;;;;;;;;;;;;;7388277;19;20516;-67
2023/07/07 03:33:04;;;;;;;;;;;;;;;;;;7364331;19;19918;-67
2023/07/07 03:35:30;;;;;;;;;;;;;;;;;;7368715;19;19950;-67
2023/07/07 03:37:55;;;;;;;;;;;;;;;;;;7366654;19;20276;-67
2023/07/07 03:40:20;;;;;;;;;;;;;;;;;;7368211;19;20287;-67
2023/07/07 03:42:45;;;;;;;;;;;;;;;;;;7368413;19;20266;-68
2023/07/07 03:45:11;;;;;;;;;;;;;;;;;;7390361;19;19926;-67
2023/07/07 03:47:36;;;;;;;;;;;;;;;;;;7363514;19;19930;-67
2023/07/07 03:50:01;;;;;;;;;;;;;;;;;;7366875;19;19998;-67
2023/07/07 03:52:27;;;;;;;;;;;;;;;;;;7368051;19;19926;-67
2023/07/07 03:54:52;;;;;;;;;;;;;;;;;;7367277;19;19923;-67
2023/07/07 03:57:17;;;;;;;;;;;;;;;;;;7387706;19;19927;-67
2023/07/07 03:59:42;;;;;;;;;;;;;;;;;;7365791;19;20030;-67
2023/07/07 04:02:08;;;;;;;;;;;;;;;;;;7364282;19;19915;-67
2023/07/07 04:04:33;;;;;;;;;;;;;;;;;;7367258;19;19914;-67
2023/07/07 04:06:59;;;;;;;;;;;;;;;;;;7365124;19;19923;-67
2023/07/07 04:09:24;;;;;;;;;;;;;;;;;;7388483;19;20308;-67
2023/07/07 04:11:50;;;;;;;;;;;;;;;;;;7366338;19;19930;-68
2023/07/07 04:14:15;;;;;;;;;;;;;;;;;;7366412;19;19911;-66
2023/07/07 04:16:41;;;;;;;;;;;;;;;;;;7364168;19;19961;-68
2023/07/07 04:19:06;;;;;;;;;;;;;;;;;;7365522;19;19915;-68
2023/07/07 04:21:34;;;;;;;;;;;;;;;;;;7386585;19;19932;-67
2023/07/07 04:23:59;;;;;;;;;;;;;;;;;;7363216;19;19919;-68
2023/07/07 04:26:25;;;;;;;;;;;;;;;;;;7366869;19;19928;-67
2023/07/07 04:28:51;;;;;;;;;;;;;;;;;;7366441;19;19959;-67
2023/07/07 04:31:17;;;;;;;;;;;;;;;;;;7364075;19;19907;-67
2023/07/07 04:33:42;;;;;;;;;;;;;;;;;;7376450;19;19922;-68
2023/07/07 04:36:09;;;;;;;;;;;;;;;;;;7379583;19;19949;-67
2023/07/07 04:38:34;;;;;;;;;;;;;;;;;;7369151;19;20353;-67
2023/07/07 04:41:04;;;;;;;;;;;;;;;;;;7365282;19;19969;-67
2023/07/07 04:43:29;;;;;;;;;;;;;;;;;;7365725;19;19936;-66
2023/07/07 04:45:55;;;;;;;;;;;;;;;;;;7366968;19;19927;-68
2023/07/07 04:48:20;;;;;;;;;;;;;;;;;;7382548;19;19928;-68
2023/07/07 04:50:45;;;;;;;;;;;;;;;;;;7364674;19;19976;-68
2023/07/07 04:53:10;;;;;;;;;;;;;;;;;;7367171;19;19922;-68
2023/07/07 04:55:39;;;;;;;;;;;;;;;;;;7363299;19;19918;-67
2023/07/07 04:58:04;;;;;;;;;;;;;;;;;;7363422;19;19925;-67
2023/07/07 05:00:29;;;;;;;;;;;;;;;;;;7385405;19;19986;-67
2023/07/07 05:02:55;;;;;;;;;;;;;;;;;;7364889;19;19944;-67
2023/07/07 05:05:20;;;;;;;;;;;;;;;;;;7367264;19;19927;-68
2023/07/07 05:07:45;;;;;;;;;;;;;;;;;;7365809;19;19922;-68
2023/07/07 05:10:10;;;;;;;;;;;;;;;;;;7362833;19;19926;-67
2023/07/07 05:12:36;;;;;;;;;;;;;;;;;;7389252;19;19932;-66
2023/07/07 05:15:01;;;;;;;;;;;;;;;;;;7366132;19;19923;-66
2023/07/07 05:17:26;;;;;;;;;;;;;;;;;;7365099;19;19915;-67
2023/07/07 05:19:51;;;;;;;;;;;;;;;;;;7367408;19;20356;-67
2023/07/07 05:22:17;;;;;;;;;;;;;;;;;;7377433;19;20657;-67
2023/07/07 05:24:42;;;;;;;;;;;;;;;;;;7388106;19;19937;-67
2023/07/07 05:27:07;;;;;;;;;;;;;;;;;;7381639;19;19915;-65
2023/07/07 05:29:33;;;;;;;;;;;;;;;;;;7365445;19;19975;-65
2023/07/07 05:31:58;;;;;;;;;;;;;;;;;;7363316;19;19922;-65
2023/07/07 05:34:23;;;;;;;;;;;;;;;;;;7364515;19;20014;-66
2023/07/07 05:36:48;;;;;;;;;;;;;;;;;;7364037;19;19946;-67
2023/07/07 05:39:13;;;;;;;;;;;;;;;;;;7386504;19;20016;-65
2023/07/07 05:41:39;;;;;;;;;;;;;;;;;;7365468;19;19919;-65
2023/07/07 05:44:04;;;;;;;;;;;;;;;;;;7367831;19;20336;-65
2023/07/07 05:46:29;;;;;;;;;;;;;;;;;;7366814;19;20258;-66
2023/07/07 05:48:54;;;;;;;;;;;;;;;;;;7367161;19;19951;-65
2023/07/07 05:51:20;;;;;;;;;;;;;;;;;;7387934;19;19927;-65
2023/07/07 05:53:47;;;;;;;;;;;;;;;;;;7365137;19;19978;-65
2023/07/07 05:56:15;;;;;;;;;;;;;;;;;;7364834;19;19922;-66
2023/07/07 05:58:40;;;;;;;;;;;;;;;;;;7364229;19;19922;-66
2023/07/07 06:01:05;;;;;;;;;;;;;;;;;;7363983;19;19919;-66
2023/07/07 06:03:31;;;;;;;;;;;;;;;;;;7386035;19;19925;-66
2023/07/07 06:05:57;;;;;;;;;;;;;;;;;;7363897;19;19943;-66
2023/07/07 06:08:22;;;;;;;;;;;;;;;;;;7363047;19;19923;-66
2023/07/07 06:10:48;;;;;;;;;;;;;;;;;;7362411;19;19927;-67
2023/07/07 06:13:17;;;;;;;;;;;;;;;;;;7368113;19;19942;-67
2023/07/07 06:15:42;;;;;;;;;;;;;;;;;;7383175;19;19967;-68
2023/07/07 06:18:07;;;;;;;;;;;;;;;;;;7375017;19;19936;-66
2023/07/07 06:20:33;;;;;;;;;;;;;;;;;;7370106;19;19926;-65
2023/07/07 06:22:58;;;;;;;;;;;;;;;;;;7368852;19;19918;-66
2023/07/07 06:25:24;;;;;;;;;;;;;;;;;;7371191;19;19926;-67
2023/07/07 06:27:49;;;;;;;;;;;;;;;;;;7369360;19;19922;-67
2023/07/07 06:30:14;;;;;;;;;;;;;;;;;;7392874;19;19911;-66
2023/07/07 06:32:40;;;;;;;;;;;;;;;;;;7371178;19;20414;-65
2023/07/07 06:35:05;;;;;;;;;;;;;;;;;;7370254;19;20263;-67
2023/07/07 06:37:30;;;;;;;;;;;;;;;;;;7369764;19;19919;-66
2023/07/07 06:39:55;;;;;;;;;;;;;;;;;;7372371;19;19915;-66
2023/07/07 06:42:21;;;;;;;;;;;;;;;;;;7394373;19;19923;-67
2023/07/07 06:44:47;;;;;;;;;;;;;;;;;;7372769;19;20003;-67
2023/07/07 06:47:13;;;;;;;;;;;;;;;;;;7366556;19;19923;-67
2023/07/07 06:49:39;;;;;;;;;;;;;;;;;;7369153;19;19918;-67
2023/07/07 06:52:04;;;;;;;;;;;;;;;;;;7369289;19;20182;-67
2023/07/07 06:54:29;;;;;;;;;;;;;;;;;;7391206;19;20286;-66
2023/07/07 06:56:55;;;;;;;;;;;;;;;;;;7366536;19;19923;-67
2023/07/07 06:59:20;;;;;;;;;;;;;;;;;;7369945;19;19919;-67
2023/07/07 07:01:45;;;;;;;;;;;;;;;;;;7369342;19;19927;-67
2023/07/07 07:04:10;;;;;;;;;;;;;;;;;;7372410;19;19982;-67
2023/07/07 07:06:35;;;;;;;;;;;;;;;;;;7397866;19;20341;-67
2023/07/07 07:09:01;;;;;;;;;;;;;;;;;;7377491;19;19998;-67
2023/07/07 07:11:26;;;;;;;;;;;;;;;;;;7375424;19;19940;-67
2023/07/07 07:13:51;;;;;;;;;;;;;;;;;;7371615;19;19919;-67
2023/07/07 07:16:16;;;;;;;;;;;;;;;;;;7374790;19;19922;-67
2023/07/07 07:18:41;;;;;;;;;;;;;;;;;;7389678;19;19939;-69
2023/07/07 07:21:07;;;;;;;;;;;;;;;;;;7380126;19;19922;-67
2023/07/07 07:23:32;;;;;;;;;;;;;;;;;;7373264;19;19929;-67
2023/07/07 07:25:57;;;;;;;;;;;;;;;;;;7375906;19;19988;-67
2023/07/07 07:28:22;;;;;;;;;;;;;;;;;;7371893;19;19923;-67
2023/07/07 07:30:48;;;;;;;;;;;;;;;;;;7371391;19;20378;-67
2023/07/07 07:33:14;;;;;;;;;;;;;;;;;;7392701;19;19919;-67
2023/07/07 07:35:40;;;;;;;;;;;;;;;;;;7368821;19;20596;-67
2023/07/07 07:38:05;;;;;;;;;;;;;;;;;;7367686;19;19926;-67
2023/07/07 07:40:31;;;;;;;;;;;;;;;;;;7366532;19;19919;-67
2023/07/07 07:42:56;;;;;;;;;;;;;;;;;;7367734;19;19931;-68
2023/07/07 07:45:22;;;;;;;;;;;;;;;;;;7389234;19;19917;-67
2023/07/07 07:47:48;;;;;;;;;;;;;;;;;;7365274;19;19998;-68
2023/07/07 07:50:14;;;;;;;;;;;;;;;;;;7366363;19;19947;-68
2023/07/07 07:52:39;;;;;;;;;;;;;;;;;;7367603;19;19937;-67
2023/07/07 07:55:05;;;;;;;;;;;;;;;;;;7366682;19;19978;-67
2023/07/07 07:57:30;;;;;;;;;;;;;;;;;;7386995;19;20297;-67
2023/07/07 07:59:55;;;;;;;;;;;;;;;;;;7365237;19;19987;-67
2023/07/07 08:02:20;;;;;;;;;;;;;;;;;;7365989;19;19974;-67
2023/07/07 08:04:46;;;;;;;;;;;;;;;;;;7367854;19;20572;-67
2023/07/07 08:07:11;;;;;;;;;;;;;;;;;;7370894;19;20309;-68
2023/07/07 08:09:36;;;;;;;;;;;;;;;;;;7392804;19;20304;-67
2023/07/07 08:12:03;;;;;;;;;;;;;;;;;;7369397;19;19941;-67
2023/07/07 08:14:32;;;;;;;;;;;;;;;;;;7367441;19;20354;-67
2023/07/07 08:17:04;;;;;;;;;;;;;;;;;;7365363;19;19928;-67
2023/07/07 08:19:31;;;;;;;;;;;;;;;;;;7366366;19;20704;-67
2023/07/07 08:21:57;;;;;;;;;;;;;;;;;;7367428;19;20260;-68
2023/07/07 08:24:23;;;;;;;;;;;;;;;;;;7388632;19;19914;-67
2023/07/07 08:26:49;;;;;;;;;;;;;;;;;;7366289;19;20458;-67
2023/07/07 08:29:15;;;;;;;;;;;;;;;;;;7370412;19;19930;-66
2023/07/07 08:31:40;;;;;;;;;;;;;;;;;;7366321;19;21911;-66
2023/07/07 08:34:05;;;;;;;;;;;;;;;;;;7365418;19;19914;-67
2023/07/07 08:36:30;;;;;;;;;;;;;;;;;;7387228;19;19923;-66
2023/07/07 08:39:10;;;;;;;;;;;;;;;;;;7364701;19;19934;-66
2023/07/07 08:41:35;;;;;;;;;;;;;;;;;;7364425;19;19922;-66
2023/07/07 08:44:01;;;;;;;;;;;;;;;;;;7367724;19;19930;-67
2023/07/07 08:46:36;;;;;;;;;;;;;;;;;;7363449;19;19928;-67
2023/07/07 08:49:15;;;;;;;;;;;;;;;;;;7366618;19;19927;-65
2023/07/07 08:51:42;;;;;;;;;;;;;;;;;;7388806;19;19957;-66
2023/07/07 08:54:13;;;;;;;;;;;;;;;;;;7366010;19;19911;-67
2023/07/07 08:56:38;;;;;;;;;;;;;;;;;;7367094;19;19915;-67
2023/07/07 08:59:24;;;;;;;;;;;;;;;;;;7367876;19;19940;-67
2023/07/07 09:01:56;;;;;;;;;;;;;;;;;;7365412;19;19921;-67
2023/07/07 09:04:41;;;;;;;;;;;;;;;;;;7361621;19;19990;-66
2023/07/07 09:07:25;;;;;;;;;;;;;;;;;;7367163;19;20018;-67
2023/07/07 09:09:58;;;;;;;;;;;;;;;;;;7366824;19;19978;-67
2023/07/07 09:12:41;;;;;;;;;;;;;;;;;;7388714;19;20329;-67
2023/07/07 09:15:23;;;;;;;;;;;;;;;;;;7367821;19;19926;-67
2023/07/07 09:17:52;;;;;;;;;;;;;;;;;;7364873;19;19918;-67
2023/07/07 09:20:19;;;;;;;;;;;;;;;;;;7366564;19;20293;-67
2023/07/07 09:22:47;;;;;;;;;;;;;;;;;;7368607;19;19926;-67
2023/07/07 09:25:15;;;;;;;;;;;;;;;;;;7365164;19;20409;-67
2023/07/07 09:27:47;;;;;;;;;;;;;;;;;;7388134;19;20407;-67
2023/07/07 09:30:12;;;;;;;;;;;;;;;;;;7364477;19;20365;-67
2023/07/07 09:32:37;;;;;;;;;;;;;;;;;;7366826;19;19919;-66
2023/07/07 09:35:03;;;;;;;;;;;;;;;;;;7365257;19;20242;-67
2023/07/07 09:37:33;;;;;;;;;;;;;;;;;;7365844;19;19949;-67
2023/07/07 09:40:04;;;;;;;;;;;;;;;;;;7365754;19;20613;-68
2023/07/07 09:42:48;;;;;;;;;;;;;;;;;;7386945;19;19910;-60
2023/07/07 09:45:13;;;;;;;;;;;;;;;;;;7366274;19;20375;-60
2023/07/07 09:47:45;;;;;;;;;;;;;;;;;;7375429;19;19923;-60
2023/07/07 09:50:12;;;;;;;;;;;;;;;;;;7379106;19;20277;-59
2023/07/07 09:52:53;;;;;;;;;;;;;;;;;;7375568;19;19986;-60
2023/07/07 09:55:24;;;;;;;;;;;;;;;;;;7370782;19;19923;-60
2023/07/07 09:57:55;;;;;;;;;;;;;;;;;;7370498;19;19915;-61
2023/07/07 10:00:21;;;;;;;;;;;;;;;;;;7393116;19;19915;-60
2023/07/07 10:02:46;;;;;;;;;;;;;;;;;;7373016;19;19926;-60
2023/07/07 10:05:13;;;;;;;;;;;;;;;;;;7372063;19;20561;-60
2023/07/07 10:07:40;;;;;;;;;;;;;;;;;;7372162;19;19930;-60
2023/07/07 10:10:06;;;;;;;;;;;;;;;;;;7370608;19;20433;-60
2023/07/07 10:12:31;;;;;;;;;;;;;;;;;;7390626;19;19922;-60
2023/07/07 10:14:57;;;;;;;;;;;;;;;;;;7369299;19;19954;-60
2023/07/07 10:17:31;;;;;;;;;;;;;;;;;;7368218;19;19919;-60
2023/07/07 10:19:58;;;;;;;;;;;;;;;;;;7371090;19;19921;-60
2023/07/07 10:22:24;;;;;;;;;;;;;;;;;;7371385;19;19919;-69
2023/07/07 10:24:49;;;;;;;;;;;;;;;;;;7370949;19;19921;-69
2023/07/07 10:27:17;;;;;;;;;;;;;;;;;;7389799;19;19971;-69
2023/07/07 10:29:42;;;;;;;;;;;;;;;;;;7370665;19;19922;-69
2023/07/07 10:32:11;;;;;;;;;;;;;;;;;;7372785;19;19911;-69
2023/07/07 10:34:38;;;;;;;;;;;;;;;;;;7373300;19;19923;-68
2023/07/07 10:37:15;;;;;;;;;;;;;;;;;;7371488;19;19919;-69
2023/07/07 10:39:40;;;;;;;;;;;;;;;;;;7393666;19;19928;-69
2023/07/07 10:42:08;;;;;;;;;;;;;;;;;;7371513;19;19923;-68
2023/07/07 10:44:33;;;;;;;;;;;;;;;;;;7372336;19;19919;-69
2023/07/07 10:46:58;;;;;;;;;;;;;;;;;;7369558;19;19919;-68
2023/07/07 10:49:25;;;;;;;;;;;;;;;;;;7371575;19;20441;-68
2023/07/07 10:52:11;;;;;;;;;;;;;;;;;;7372266;19;19906;-69
2023/07/07 10:55:00;;;;;;;;;;;;;;;;;;7392443;19;20725;-69
2023/07/07 10:57:28;;;;;;;;;;;;;;;;;;7366827;19;19923;-69
2023/07/07 10:59:53;;;;;;;;;;;;;;;;;;7370831;19;19918;-68
2023/07/07 11:02:18;;;;;;;;;;;;;;;;;;7370401;19;19914;-69
2023/07/07 11:05:02;;;;;;;;;;;;;;;;;;7371344;19;19943;-68
2023/07/07 11:07:30;;;;;;;;;;;;;;;;;;7371029;19;19926;-68
2023/07/07 11:10:00;;;;;;;;;;;;;;;;;;7370764;19;19926;-69
2023/07/07 11:12:38;;;;;;;;;;;;;;;;;;7395488;19;19944;-68
2023/07/07 11:15:12;;;;;;;;;;;;;;;;;;7375414;19;19911;-68
2023/07/07 11:17:50;;;;;;;;;;;;;;;;;;7373990;19;19923;-69
2023/07/07 11:20:18;;;;;;;;;;;;;;;;;;7374513;19;19922;-69
2023/07/07 11:22:44;;;;;;;;;;;;;;;;;;7376450;19;19998;-69
2023/07/07 11:25:25;;;;;;;;;;;;;;;;;;7377257;19;19932;-68
2023/07/07 11:27:58;;;;;;;;;;;;;;;;;;7377074;19;19917;-70
2023/07/07 11:30:31;;;;;;;;;;;;;;;;;;7399689;19;19930;-69
2023/07/07 11:33:17;;;;;;;;;;;;;;;;;;7378530;19;20541;-69
2023/07/07 11:36:02;;;;;;;;;;;;;;;;;;7375608;19;19923;-69
2023/07/07 11:38:28;;;;;;;;;;;;;;;;;;7374896;19;19919;-69
2023/07/07 11:41:14;;;;;;;;;;;;;;;;;;7373204;19;19970;-69
2023/07/07 11:44:04;;;;;;;;;;;;;;;;;;7372288;19;19915;-69
2023/07/07 11:46:33;;;;;;;;;;;;;;;;;;7373580;19;19915;-69
2023/07/07 11:49:13;;;;;;;;;;;;;;;;;;7373655;19;19922;-70
2023/07/07 11:51:46;;;;;;;;;;;;;;;;;;7392367;19;19919;-68
2023/07/07 11:54:12;;;;;;;;;;;;;;;;;;7370815;19;20293;-69
2023/07/07 11:56:37;;;;;;;;;;;;;;;;;;7368558;19;19923;-69
2023/07/07 11:59:02;;;;;;;;;;;;;;;;;;7370372;19;19931;-69
2023/07/07 12:01:31;;;;;;;;;;;;;;;;;;7370828;19;19969;-69
2023/07/07 12:03:56;;;;;;;;;;;;;;;;;;7372975;19;19922;-70
2023/07/07 12:06:45;;;;;;;;;;;;;;;;;;7393932;19;19923;-69
2023/07/07 12:09:29;;;;;;;;;;;;;;;;;;7368549;19;20367;-69
2023/07/07 12:12:04;;;;;;;;;;;;;;;;;;7368885;19;20014;-69
2023/07/07 12:14:29;;;;;;;;;;;;;;;;;;7368593;19;20341;-68
2023/07/07 12:16:56;;;;;;;;;;;;;;;;;;7368665;19;19927;-70
2023/07/07 12:19:42;;;;;;;;;;;;;;;;;;7369086;19;20341;-68
2023/07/07 12:22:26;;;;;;;;;;;;;;;;;;7377349;19;19937;-68
2023/07/07 12:25:00;;;;;;;;;;;;;;;;;;7370746;19;20348;-69
2023/07/07 12:27:39;;;;;;;;;;;;;;;;;;7390057;19;19918;-69
2023/07/07 12:30:05;;;;;;;;;;;;;;;;;;7367116;19;19914;-68
2023/07/07 12:32:30;;;;;;;;;;;;;;;;;;7367655;19;19919;-68
2023/07/07 12:35:03;;;;;;;;;;;;;;;;;;7368420;19;19929;-68
2023/07/07 12:37:28;;;;;;;;;;;;;;;;;;7367539;19;19923;-69
2023/07/07 12:40:05;;;;;;;;;;;;;;;;;;7364947;19;20280;-70
2023/07/07 12:42:31;;;;;;;;;;;;;;;;;;7393494;19;19932;-68
2023/07/07 12:45:16;;;;;;;;;;;;;;;;;;7371752;19;20270;-68
2023/07/07 12:47:42;;;;;;;;;;;;;;;;;;7365926;19;19927;-68
2023/07/07 12:50:26;;;;;;;;;;;;;;;;;;7367253;19;19918;-69
2023/07/07 12:52:52;;;;;;;;;;;;;;;;;;7367826;19;19911;-69
2023/07/07 12:55:30;;;;;;;;;;;;;;;;;;7367887;19;20611;-70
2023/07/07 12:58:04;;;;;;;;;;;;;;;;;;7367023;19;20392;-68
2023/07/07 13:00:31;;;;;;;;;;;;;;;;;;7388651;19;20267;-69
2023/07/07 13:03:09;;;;;;;;;;;;;;;;;;7367204;19;19918;-69
2023/07/07 13:05:34;;;;;;;;;;;;;;;;;;7366653;19;20348;-70
2023/07/07 13:08:00;;;;;;;;;;;;;;;;;;7368079;19;19923;-68
2023/07/07 13:10:31;;;;;;;;;;;;;;;;;;7368187;19;19919;-68
2023/07/07 13:13:04;;;;;;;;;;;;;;;;;;7370124;19;19918;-67
2023/07/07 13:15:30;;;;;;;;;;;;;;;;;;7391598;19;19915;-69
2023/07/07 13:17:57;;;;;;;;;;;;;;;;;;7366739;19;19939;-67
2023/07/07 13:20:23;;;;;;;;;;;;;;;;;;7369105;19;19919;-69
2023/07/07 13:23:05;;;;;;;;;;;;;;;;;;7375790;19;19956;-69
2023/07/07 13:25:34;;;;;;;;;;;;;;;;;;7375355;19;19934;-68
2023/07/07 13:28:03;;;;;;;;;;;;;;;;;;7372932;19;19919;-68
2023/07/07 13:30:31;;;;;;;;;;;;;;;;;;7398777;19;19919;-69
2023/07/07 13:32:56;;;;;;;;;;;;;;;;;;7381235;19;19922;-69
2023/07/07 13:35:27;;;;;;;;;;;;;;;;;;7376717;19;20001;-69
2023/07/07 13:37:57;;;;;;;;;;;;;;;;;;7377468;19;19923;-69
2023/07/07 13:40:22;;;;;;;;;;;;;;;;;;7373644;19;19934;-69
2023/07/07 13:42:50;;;;;;;;;;;;;;;;;;7375124;19;20266;-68
2023/07/07 13:45:17;;;;;;;;;;;;;;;;;;7397920;19;19919;-69
2023/07/07 13:47:43;;;;;;;;;;;;;;;;;;7372892;19;19940;-69
2023/07/07 13:50:23;;;;;;;;;;;;;;;;;;7373568;19;19926;-69
2023/07/07 13:52:52;;;;;;;;;;;;;;;;;;7374643;19;20293;-69
2023/07/07 13:55:17;;;;;;;;;;;;;;;;;;7372815;19;19934;-69
2023/07/07 13:57:43;;;;;;;;;;;;;;;;;;7381227;19;19915;-70
2023/07/07 14:00:16;;;;;;;;;;;;;;;;;;7390235;19;19921;-69
2023/07/07 14:02:42;;;;;;;;;;;;;;;;;;7373638;19;19923;-69
2023/07/07 14:05:08;;;;;;;;;;;;;;;;;;7372220;19;19925;-68
2023/07/07 14:07:37;;;;;;;;;;;;;;;;;;7372964;19;19930;-69
2023/07/07 14:10:12;;;;;;;;;;;;;;;;;;7371845;19;19987;-69
2023/07/07 14:12:37;;;;;;;;;;;;;;;;;;7394985;19;20000;-68
2023/07/07 14:15:03;;;;;;;;;;;;;;;;;;7372509;19;19937;-69
2023/07/07 14:17:35;;;;;;;;;;;;;;;;;;7371153;19;19922;-69
2023/07/07 14:20:07;;;;;;;;;;;;;;;;;;7371317;19;20018;-69
2023/07/07 14:22:33;;;;;;;;;;;;;;;;;;7372476;19;19935;-69
2023/07/07 14:24:58;;;;;;;;;;;;;;;;;;7372799;19;20346;-69
2023/07/07 14:27:26;;;;;;;;;;;;;;;;;;7392615;19;19928;-69
2023/07/07 14:29:51;;;;;;;;;;;;;;;;;;7371323;19;19922;-69
2023/07/07 14:32:21;;;;;;;;;;;;;;;;;;7369536;19;19954;-69
2023/07/07 14:34:47;;;;;;;;;;;;;;;;;;7373456;19;19922;-68
2023/07/07 14:37:17;;;;;;;;;;;;;;;;;;7370961;19;19911;-68
2023/07/07 14:39:48;;;;;;;;;;;;;;;;;;7385999;19;19919;-69
2023/07/07 14:42:21;;;;;;;;;;;;;;;;;;7395459;19;19929;-68
2023/07/07 14:44:47;;;;;;;;;;;;;;;;;;7372179;19;20301;-69
2023/07/07 14:47:23;;;;;;;;;;;;;;;;;;7370816;19;19916;-69
2023/07/07 14:49:49;;;;;;;;;;;;;;;;;;7371298;19;19934;-69
2023/07/07 14:52:17;;;;;;;;;;;;;;;;;;7372463;19;19922;-68
2023/07/07 14:54:42;;;;;;;;;;;;;;;;;;7386839;19;19940;-70
2023/07/07 14:57:14;;;;;;;;;;;;;;;;;;7378928;19;19911;-68
2023/07/07 14:59:40;;;;;;;;;;;;;;;;;;7368926;19;20683;-68
2023/07/07 15:02:13;;;;;;;;;;;;;;;;;;7371159;19;19922;-68
2023/07/07 15:04:39;;;;;;;;;;;;;;;;;;7372033;19;19915;-68
2023/07/07 15:07:05;;;;;;;;;;;;;;;;;;7371197;19;19930;-68
2023/07/07 15:09:30;;;;;;;;;;;;;;;;;;7392402;19;19919;-68
2023/07/07 15:11:56;;;;;;;;;;;;;;;;;;7370517;19;19929;-68
2023/07/07 15:14:21;;;;;;;;;;;;;;;;;;7370638;19;19947;-69
2023/07/07 15:16:47;;;;;;;;;;;;;;;;;;7370286;19;20280;-68
2023/07/07 15:19:16;;;;;;;;;;;;;;;;;;7371145;19;20266;-69
2023/07/07 15:21:42;;;;;;;;;;;;;;;;;;7391154;19;20353;-72
2023/07/07 15:24:07;;;;;;;;;;;;;;;;;;7376689;19;19938;-68
2023/07/07 15:26:33;;;;;;;;;;;;;;;;;;7371779;19;20339;-69
2023/07/07 15:28:59;;;;;;;;;;;;;;;;;;7372630;19;19928;-69
2023/07/07 15:31:24;;;;;;;;;;;;;;;;;;7369283;19;19919;-69
2023/07/07 15:33:50;;;;;;;;;;;;;;;;;;7370718;19;19919;-70
2023/07/07 15:36:16;;;;;;;;;;;;;;;;;;7390681;19;20239;-69
2023/07/07 15:38:41;;;;;;;;;;;;;;;;;;7369882;19;19927;-69
2023/07/07 15:41:10;;;;;;;;;;;;;;;;;;7369280;19;19930;-68
2023/07/07 15:43:36;;;;;;;;;;;;;;;;;;7369190;19;19922;-69
2023/07/07 15:46:01;;;;;;;;;;;;;;;;;;7369294;19;19928;-71
2023/07/07 15:48:26;;;;;;;;;;;;;;;;;;7391553;19;19911;-65
2023/07/07 15:50:51;;;;;;;;;;;;;;;;;;7369024;19;19933;-63
2023/07/07 15:53:17;;;;;;;;;;;;;;;;;;7370356;19;19947;-66
2023/07/07 15:55:43;;;;;;;;;;;;;;;;;;7368811;19;19958;-64
2023/07/07 15:58:09;;;;;;;;;;;;;;;;;;7368272;19;20560;-63
2023/07/07 16:00:37;;;;;;;;;;;;;;;;;;7389737;19;19948;-65
2023/07/07 16:03:02;;;;;;;;;;;;;;;;;;7369455;19;19923;-69
2023/07/07 16:05:27;;;;;;;;;;;;;;;;;;7369828;19;19974;-63
2023/07/07 16:07:52;;;;;;;;;;;;;;;;;;7369390;19;19919;-58
2023/07/07 16:10:18;;;;;;;;;;;;;;;;;;7369803;19;19955;-65
2023/07/07 16:12:44;;;;;;;;;;;;;;;;;;7379116;19;19919;-67
2023/07/07 16:15:09;;;;;;;;;;;;;;;;;;7393254;19;19922;-68
2023/07/07 16:17:35;;;;;;;;;;;;;;;;;;7368384;19;19926;-67
2023/07/07 16:20:10;;;;;;;;;;;;;;;;;;7369870;19;19927;-67
2023/07/07 16:22:52;;;;;;;;;;;;;;;;;;7369163;19;19922;-66
2023/07/07 16:25:17;;;;;;;;;;;;;;;;;;7369048;19;19947;-63
2023/07/07 16:27:43;;;;;;;;;;;;;;;;;;7377471;19;19918;-63
2023/07/07 16:30:19;;;;;;;;;;;;;;;;;;7390202;19;20318;-65
2023/07/07 16:32:45;;;;;;;;;;;;;;;;;;7370235;19;19915;-70
2023/07/07 16:35:11;;;;;;;;;;;;;;;;;;7368028;19;19943;-68
2023/07/07 16:37:39;;;;;;;;;;;;;;;;;;7368668;19;19915;-68
2023/07/07 16:40:16;;;;;;;;;;;;;;;;;;7367803;19;19995;-70
2023/07/07 16:42:41;;;;;;;;;;;;;;;;;;7391461;19;20326;-69
2023/07/07 16:45:07;;;;;;;;;;;;;;;;;;7368085;19;19935;-69
2023/07/07 16:47:32;;;;;;;;;;;;;;;;;;7365838;19;19929;-71
2023/07/07 16:49:57;;;;;;;;;;;;;;;;;;7367418;19;20351;-68
2023/07/07 16:52:22;;;;;;;;;;;;;;;;;;7367570;19;19926;-68